Time;durP1;ratioP1;P1;durP2;ratioP2;P2;SDS_P1;SDS_P2;PMS_P1;PMS_P2;Temp;Humidity;BMP_temperature;BMP_pressure;BME280_temperature;BME280_humidity;BME280_pressure;Samples;Min_cycle;Max_cycle;Signal;HPM_P1;HPM_P2
2024/01/08 00:01:08;;;;;;;4.93;1.50;;;-0.50;99.90;;;;;;5032931;28;20060;-54
2024/01/08 00:03:38;;;;;;;2.38;1.90;;;-0.40;99.90;;;;;;5033713;28;20482;-54
2024/01/08 00:06:04;;;;;;;1.90;1.80;;;-0.40;99.90;;;;;;5032984;28;20540;-59
2024/01/08 00:08:30;;;;;;;3.35;2.00;;;-0.40;99.90;;;;;;5031807;28;20025;-54
2024/01/08 00:10:55;;;;;;;2.08;1.55;;;-0.40;99.90;;;;;;5033018;28;20030;-52
2024/01/08 00:13:21;;;;;;;2.22;1.50;;;-0.40;99.90;;;;;;5030963;28;20052;-50
2024/01/08 00:15:47;;;;;;;4.03;1.63;;;-0.50;99.90;;;;;;5013626;28;20034;-54
2024/01/08 00:18:12;;;;;;;4.97;1.63;;;-0.50;99.90;;;;;;5031666;28;20028;-61
2024/01/08 00:20:38;;;;;;;3.80;1.83;;;-0.60;99.90;;;;;;5032984;28;20422;-55
2024/01/08 00:23:03;;;;;;;4.90;1.52;;;-0.60;99.90;;;;;;5033283;28;20021;-56
2024/01/08 00:25:29;;;;;;;4.72;1.90;;;-0.70;99.90;;;;;;5033138;28;20025;-55
2024/01/08 00:27:55;;;;;;;1.85;1.23;;;-0.70;99.90;;;;;;5033421;28;20021;-52
2024/01/08 00:30:21;;;;;;;3.88;1.75;;;-0.60;99.90;;;;;;5032936;28;20482;-53
2024/01/08 00:32:47;;;;;;;2.65;1.50;;;-0.70;99.90;;;;;;5033154;28;20029;-54
2024/01/08 00:35:13;;;;;;;1.55;1.45;;;-0.50;99.90;;;;;;5032848;28;20083;-39
2024/01/08 00:37:40;;;;;;;1.83;1.38;;;-0.40;99.90;;;;;;5032686;28;20116;-38
2024/01/08 00:40:07;;;;;;;2.03;1.33;;;-0.40;99.90;;;;;;5031725;28;20029;-41
2024/01/08 00:42:33;;;;;;;3.22;2.30;;;-0.30;99.90;;;;;;5032948;28;20032;-40
2024/01/08 00:44:59;;;;;;;2.72;1.70;;;-0.40;99.90;;;;;;5032878;28;20026;-40
2024/01/08 00:47:24;;;;;;;3.20;1.58;;;-0.40;99.90;;;;;;5032890;28;20026;-41
2024/01/08 00:49:50;;;;;;;4.00;2.25;;;-0.40;99.90;;;;;;5032802;28;20025;-41
2024/01/08 00:52:15;;;;;;;3.17;2.25;;;-0.40;99.90;;;;;;5032400;28;20110;-41
2024/01/08 00:54:41;;;;;;;3.22;1.65;;;-0.50;99.90;;;;;;5032480;28;20080;-39
2024/01/08 00:57:07;;;;;;;2.88;2.10;;;-0.60;99.90;;;;;;5031436;28;20033;-40
2024/01/08 00:59:32;;;;;;;2.50;1.77;;;-0.70;99.90;;;;;;5032425;28;20029;-40
2024/01/08 01:01:58;;;;;;;7.03;1.50;;;-0.70;99.90;;;;;;5032062;28;20029;-39
2024/01/08 01:04:24;;;;;;;3.10;2.17;;;-0.70;99.90;;;;;;5032891;28;20060;-39
2024/01/08 01:06:49;;;;;;;2.90;1.40;;;-0.80;99.90;;;;;;5032603;28;20385;-41
2024/01/08 01:09:15;;;;;;;3.80;2.08;;;-0.90;99.90;;;;;;5032060;28;20207;-39
2024/01/08 01:11:41;;;;;;;3.40;1.88;;;-1.00;99.90;;;;;;5032282;28;20486;-41
2024/01/08 01:14:06;;;;;;;2.28;1.92;;;-1.00;99.90;;;;;;5032405;28;20116;-41
2024/01/08 01:16:33;;;;;;;2.35;1.98;;;-1.00;99.90;;;;;;5032626;28;20104;-43
2024/01/08 01:18:59;;;;;;;2.95;2.35;;;-1.00;99.90;;;;;;5032452;28;20040;-42
2024/01/08 01:21:25;;;;;;;2.25;1.92;;;-1.00;99.90;;;;;;5032518;28;20034;-41
2024/01/08 01:23:52;;;;;;;4.88;2.38;;;-1.00;99.90;;;;;;5031719;28;20108;-42
2024/01/08 01:26:17;;;;;;;1.83;1.65;;;-1.00;99.90;;;;;;5030819;28;20026;-40
2024/01/08 01:28:43;;;;;;;3.20;1.85;;;-1.10;99.90;;;;;;5032730;28;20140;-42
2024/01/08 01:31:12;;;;;;;5.15;2.22;;;-1.00;99.90;;;;;;5032072;28;20025;-39
2024/01/08 01:33:38;;;;;;;3.15;1.95;;;-1.10;99.90;;;;;;5032413;28;20040;-40
2024/01/08 01:36:05;;;;;;;2.70;2.00;;;-1.10;99.90;;;;;;5032364;28;20037;-39
2024/01/08 01:38:31;;;;;;;2.85;1.95;;;-1.10;99.90;;;;;;5030865;28;20477;-54
2024/01/08 01:40:57;;;;;;;3.15;1.88;;;-1.10;99.90;;;;;;5032223;28;20030;-49
2024/01/08 01:43:25;;;;;;;2.65;1.90;;;-1.10;99.90;;;;;;5031745;28;20398;-55
2024/01/08 01:45:54;;;;;;;3.15;2.28;;;-1.10;99.90;;;;;;5034338;28;20548;-51
2024/01/08 01:48:21;;;;;;;3.47;2.30;;;-1.20;99.90;;;;;;5035350;28;20056;-54
2024/01/08 01:50:47;;;;;;;3.15;1.65;;;-1.20;99.90;;;;;;5034402;28;20103;-57
2024/01/08 01:53:13;;;;;;;5.78;2.63;;;-1.20;99.90;;;;;;5035852;28;20044;-55
2024/01/08 01:55:41;;;;;;;2.83;1.40;;;-1.30;99.90;;;;;;5035935;28;20033;-53
2024/01/08 01:58:07;;;;;;;1.67;1.52;;;-1.30;99.90;;;;;;5035348;28;20486;-55
2024/01/08 02:00:33;;;;;;;3.30;1.77;;;-1.30;99.90;;;;;;5036089;28;20601;-40
2024/01/08 02:03:01;;;;;;;4.15;1.65;;;-1.30;99.90;;;;;;5035502;28;20053;-43
2024/01/08 02:05:27;;;;;;;2.50;1.95;;;-1.30;99.90;;;;;;5034607;28;20048;-40
2024/01/08 02:07:53;;;;;;;4.40;1.83;;;-1.30;99.90;;;;;;5035164;28;20037;-40
2024/01/08 02:10:19;;;;;;;2.60;1.60;;;-1.40;99.90;;;;;;5035324;28;20430;-43
2024/01/08 02:12:48;;;;;;;4.47;2.08;;;-1.40;99.90;;;;;;5035835;28;20493;-43
2024/01/08 02:15:14;;;;;;;2.60;1.95;;;-1.40;99.90;;;;;;5035132;28;20486;-41
2024/01/08 02:17:39;;;;;;;7.13;2.38;;;-1.40;99.90;;;;;;5035247;28;20029;-40
2024/01/08 02:20:07;;;;;;;3.53;1.67;;;-1.40;99.90;;;;;;5035264;28;20076;-42
2024/01/08 02:22:41;;;;;;;2.40;1.67;;;-1.40;99.90;;;;;;5035320;28;20044;-40
2024/01/08 02:25:10;;;;;;;3.95;1.58;;;-1.50;99.90;;;;;;5035344;28;20087;-39
2024/01/08 02:27:36;;;;;;;4.32;1.92;;;-1.60;99.90;;;;;;5035329;28;20026;-45
2024/01/08 02:30:01;;;;;;;5.22;1.48;;;-1.50;99.90;;;;;;5035115;28;20500;-40
2024/01/08 02:32:27;;;;;;;2.75;1.80;;;-1.50;99.90;;;;;;5035112;28;20047;-41
2024/01/08 02:34:53;;;;;;;5.00;2.45;;;-1.40;99.90;;;;;;5019674;28;20032;-43
2024/01/08 02:37:18;;;;;;;3.28;1.65;;;-1.30;99.90;;;;;;5015422;28;20058;-45
2024/01/08 02:39:44;;;;;;;2.40;1.30;;;-1.30;99.90;;;;;;5027593;28;20064;-42
2024/01/08 02:42:13;;;;;;;7.57;1.50;;;-1.40;99.90;;;;;;5034379;28;20022;-44
2024/01/08 02:44:40;;;;;;;3.80;2.10;;;-1.50;99.90;;;;;;5034665;28;20560;-47
2024/01/08 02:47:05;;;;;;;3.03;1.77;;;-1.50;99.90;;;;;;5034948;28;20425;-41
2024/01/08 02:49:31;;;;;;;1.65;1.52;;;-1.50;99.90;;;;;;5035084;28;20087;-53
2024/01/08 02:51:57;;;;;;;4.93;1.85;;;-1.50;99.90;;;;;;5034363;28;20044;-56
2024/01/08 02:54:22;;;;;;;3.75;1.58;;;-1.50;99.90;;;;;;5034595;28;20038;-55
2024/01/08 02:56:49;;;;;;;3.38;2.15;;;-1.60;99.90;;;;;;5035014;28;20491;-42
2024/01/08 02:59:15;;;;;;;2.35;1.83;;;-1.60;99.90;;;;;;5034252;28;20502;-42
2024/01/08 03:01:41;;;;;;;2.97;1.65;;;-1.60;99.90;;;;;;5034501;28;20108;-40
2024/01/08 03:04:06;;;;;;;2.78;1.80;;;-1.60;99.90;;;;;;5034656;28;20160;-42
2024/01/08 03:06:32;;;;;;;3.53;2.08;;;-1.60;99.90;;;;;;5034546;28;20501;-43
2024/01/08 03:09:00;;;;;;;4.60;2.20;;;-1.70;99.90;;;;;;5034001;28;20021;-48
2024/01/08 03:11:25;;;;;;;6.80;2.42;;;-1.80;99.90;;;;;;5014980;28;20490;-43
2024/01/08 03:13:51;;;;;;;5.65;2.05;;;-1.80;99.90;;;;;;5018357;28;20021;-42
2024/01/08 03:16:19;;;;;;;2.08;1.50;;;-1.70;99.90;;;;;;5034189;28;20028;-41
2024/01/08 03:18:48;;;;;;;2.33;1.88;;;-1.80;99.90;;;;;;5034484;28;20096;-43
2024/01/08 03:21:14;;;;;;;5.25;1.85;;;-1.70;99.90;;;;;;5034107;28;20049;-44
2024/01/08 03:23:39;;;;;;;4.40;2.58;;;-1.70;99.90;;;;;;5033770;28;20034;-43
2024/01/08 03:26:05;;;;;;;3.40;1.73;;;-1.70;99.90;;;;;;5034147;28;20398;-55
2024/01/08 03:28:31;;;;;;;2.70;1.50;;;-1.80;99.90;;;;;;5034029;28;20029;-52
2024/01/08 03:30:56;;;;;;;3.10;2.15;;;-1.80;99.90;;;;;;5034061;28;20091;-56
2024/01/08 03:33:22;;;;;;;7.57;2.45;;;-1.80;99.90;;;;;;5034089;28;20033;-57
2024/01/08 03:35:48;;;;;;;4.50;3.03;;;-1.80;99.90;;;;;;5034083;28;20033;-54
2024/01/08 03:38:14;;;;;;;3.50;1.95;;;-1.70;99.90;;;;;;5034265;28;20109;-52
2024/01/08 03:40:40;;;;;;;2.92;2.00;;;-1.60;99.90;;;;;;5033539;28;20036;-54
2024/01/08 03:43:05;;;;;;;2.72;1.73;;;-1.80;99.90;;;;;;5033939;28;20030;-54
2024/01/08 03:45:31;;;;;;;4.13;2.08;;;-1.80;99.90;;;;;;5033835;28;20029;-54
2024/01/08 03:47:56;;;;;;;7.03;1.95;;;-1.80;99.90;;;;;;5033771;28;20021;-54
2024/01/08 03:50:22;;;;;;;5.00;1.70;;;-1.80;99.90;;;;;;5033781;28;20040;-54
2024/01/08 03:52:48;;;;;;;4.18;2.00;;;-1.80;99.90;;;;;;5033354;28;20034;-54
2024/01/08 03:55:13;;;;;;;4.28;2.45;;;-1.70;99.90;;;;;;5033636;28;20026;-54
2024/01/08 03:57:39;;;;;;;3.30;2.15;;;-1.70;99.90;;;;;;5033483;28;20120;-56
2024/01/08 04:00:05;;;;;;;11.25;2.60;;;-1.80;99.90;;;;;;5033383;28;20100;-54
2024/01/08 04:02:31;;;;;;;4.32;2.38;;;-1.80;99.90;;;;;;5033586;28;20478;-48
2024/01/08 04:04:56;;;;;;;5.15;2.28;;;-1.80;99.90;;;;;;5032922;28;20028;-52
2024/01/08 04:07:22;;;;;;;3.67;1.90;;;-1.80;99.90;;;;;;5033174;28;20032;-54
2024/01/08 04:09:48;;;;;;;5.35;2.13;;;-1.70;99.90;;;;;;5031414;28;20057;-54
2024/01/08 04:12:13;;;;;;;3.85;1.85;;;-1.70;99.90;;;;;;5033322;28;20100;-54
2024/01/08 04:14:39;;;;;;;6.32;2.35;;;-1.70;99.90;;;;;;5033166;28;20021;-55
2024/01/08 04:17:06;;;;;;;3.88;2.40;;;-1.80;99.90;;;;;;5033561;28;20109;-53
2024/01/08 04:19:31;;;;;;;6.55;2.42;;;-1.80;99.90;;;;;;5033241;28;20501;-52
2024/01/08 04:21:57;;;;;;;3.40;1.80;;;-1.80;99.90;;;;;;5032773;28;20037;-55
2024/01/08 04:24:24;;;;;;;2.72;1.98;;;-1.70;99.90;;;;;;5033005;28;20029;-41
2024/01/08 04:26:50;;;;;;;4.35;1.90;;;-1.70;99.90;;;;;;5033038;28;20021;-44
2024/01/08 04:29:16;;;;;;;4.45;2.35;;;-1.70;99.90;;;;;;5033162;28;20044;-42
2024/01/08 04:31:41;;;;;;;5.75;2.22;;;-1.70;99.90;;;;;;5032959;28;20025;-43
2024/01/08 04:34:07;;;;;;;4.70;2.78;;;-1.70;99.90;;;;;;5033045;28;20381;-42
2024/01/08 04:36:33;;;;;;;5.03;2.35;;;-1.60;99.90;;;;;;5033263;28;20101;-46
2024/01/08 04:38:58;;;;;;;2.60;1.85;;;-1.50;99.90;;;;;;5032971;28;20034;-44
2024/01/08 04:41:24;;;;;;;6.57;2.20;;;-1.40;99.90;;;;;;5032854;28;20059;-46
2024/01/08 04:43:50;;;;;;;4.65;2.33;;;-1.30;99.90;;;;;;5032916;28;20410;-44
2024/01/08 04:46:15;;;;;;;12.38;3.65;;;-1.30;99.90;;;;;;5032862;28;20091;-47
2024/01/08 04:48:41;;;;;;;4.18;2.78;;;-1.20;99.90;;;;;;5032469;28;20045;-47
2024/01/08 04:51:07;;;;;;;4.20;2.17;;;-1.20;99.90;;;;;;5032595;28;20029;-47
2024/01/08 04:53:35;;;;;;;3.92;2.35;;;-1.10;99.90;;;;;;5032748;28;20392;-46
2024/01/08 04:56:01;;;;;;;6.57;2.13;;;-1.10;99.90;;;;;;5031508;28;20037;-45
2024/01/08 04:58:27;;;;;;;10.60;2.78;;;-1.10;99.90;;;;;;5032571;28;20423;-48
2024/01/08 05:00:52;;;;;;;2.35;1.70;;;-0.90;99.90;;;;;;5032669;28;20057;-45
2024/01/08 05:03:18;;;;;;;4.90;2.42;;;-0.90;99.90;;;;;;5031129;28;20021;-46
2024/01/08 05:05:43;;;;;;;10.63;2.42;;;-0.90;99.90;;;;;;5032497;28;20033;-46
2024/01/08 05:08:09;;;;;;;4.03;2.35;;;-0.90;99.90;;;;;;5032602;28;20478;-46
2024/01/08 05:10:35;;;;;;;6.82;2.10;;;-0.90;99.90;;;;;;5032244;28;20120;-47
2024/01/08 05:13:00;;;;;;;5.50;2.85;;;-0.90;99.90;;;;;;5032888;28;20033;-42
2024/01/08 05:15:26;;;;;;;4.05;2.75;;;-0.90;99.90;;;;;;5034512;28;20118;-41
2024/01/08 05:17:51;;;;;;;7.25;2.65;;;-0.80;99.90;;;;;;5052752;28;20033;-44
2024/01/08 05:20:17;;;;;;;4.18;2.20;;;-0.80;99.90;;;;;;5050335;28;20021;-47
2024/01/08 05:22:43;;;;;;;5.22;2.47;;;-0.80;99.90;;;;;;5036368;28;20038;-47
2024/01/08 05:25:09;;;;;;;4.63;2.35;;;-0.60;99.90;;;;;;5035016;28;20029;-43
2024/01/08 05:27:35;;;;;;;5.35;2.38;;;-0.50;99.90;;;;;;5036434;28;20474;-59
2024/01/08 05:30:01;;;;;;;7.28;2.60;;;-0.50;99.90;;;;;;5036188;28;20043;-55
2024/01/08 05:32:26;;;;;;;9.63;2.38;;;-0.50;99.90;;;;;;5036418;28;20119;-54
2024/01/08 05:34:53;;;;;;;6.25;2.60;;;-0.50;99.90;;;;;;5036577;28;20459;-54
2024/01/08 05:37:18;;;;;;;6.53;2.50;;;-0.40;99.90;;;;;;5036277;28;20034;-55
2024/01/08 05:39:44;;;;;;;4.10;2.50;;;-0.40;99.90;;;;;;5035986;28;20428;-55
2024/01/08 05:42:09;;;;;;;3.67;2.30;;;-0.50;99.90;;;;;;5036186;28;20029;-52
2024/01/08 05:44:35;;;;;;;4.28;2.65;;;-0.50;99.90;;;;;;5036391;28;20081;-56
2024/01/08 05:47:01;;;;;;;9.07;3.10;;;-0.60;99.90;;;;;;5036144;28;20386;-43
2024/01/08 05:49:27;;;;;;;7.28;3.13;;;-0.60;99.90;;;;;;5035598;28;20028;-43
2024/01/08 05:51:52;;;;;;;5.95;3.08;;;-0.60;99.90;;;;;;5036038;28;20084;-46
2024/01/08 05:54:18;;;;;;;7.55;2.90;;;-0.70;99.90;;;;;;5035638;28;20340;-48
2024/01/08 05:56:44;;;;;;;7.55;3.65;;;-0.70;99.90;;;;;;5035261;28;20434;-45
2024/01/08 05:59:09;;;;;;;4.57;2.72;;;-0.60;99.90;;;;;;5035829;28;20029;-49
2024/01/08 06:01:35;;;;;;;5.50;3.30;;;-0.60;99.90;;;;;;5035611;28;20029;-46
2024/01/08 06:04:01;;;;;;;4.07;2.67;;;-0.60;99.90;;;;;;5036099;28;20018;-46
2024/01/08 06:06:27;;;;;;;11.50;3.20;;;-0.50;99.90;;;;;;5035687;28;20104;-46
2024/01/08 06:08:53;;;;;;;5.97;2.95;;;-0.50;99.90;;;;;;5035615;28;20017;-44
2024/01/08 06:11:18;;;;;;;4.43;2.35;;;-0.50;99.90;;;;;;5035284;28;20088;-42
2024/01/08 06:13:44;;;;;;;7.65;3.97;;;-0.40;99.90;;;;;;5033900;28;20025;-48
2024/01/08 06:16:16;;;;;;;3.58;2.17;;;-0.30;99.90;;;;;;5035454;28;20033;-47
2024/01/08 06:18:42;;;;;;;6.45;3.00;;;-0.40;99.90;;;;;;5035379;28;20071;-46
2024/01/08 06:21:08;;;;;;;3.72;2.55;;;-0.40;99.90;;;;;;5034918;28;20038;-49
2024/01/08 06:23:34;;;;;;;8.15;3.80;;;-0.30;99.90;;;;;;5035511;28;20017;-46
2024/01/08 06:26:03;;;;;;;3.80;2.75;;;-0.30;99.90;;;;;;5035277;28;20470;-47
2024/01/08 06:28:29;;;;;;;8.15;3.05;;;-0.30;99.90;;;;;;5035612;28;20082;-46
2024/01/08 06:30:56;;;;;;;6.80;2.97;;;-0.30;99.90;;;;;;5034399;28;20481;-47
2024/01/08 06:33:21;;;;;;;4.75;2.55;;;-0.30;99.90;;;;;;5035455;28;20466;-53
2024/01/08 06:35:48;;;;;;;8.18;3.72;;;-0.20;99.90;;;;;;5035144;28;20021;-54
2024/01/08 06:38:13;;;;;;;6.88;3.22;;;-0.30;99.90;;;;;;5035183;28;20466;-55
2024/01/08 06:40:39;;;;;;;5.43;2.85;;;-0.30;99.90;;;;;;5035071;28;20026;-54
2024/01/08 06:43:05;;;;;;;6.38;3.00;;;-0.20;99.90;;;;;;5035106;28;20148;-54
2024/01/08 06:45:31;;;;;;;7.85;3.17;;;-0.20;99.90;;;;;;5034986;28;20413;-54
2024/01/08 06:47:57;;;;;;;3.78;2.45;;;-0.20;99.90;;;;;;5034598;28;20426;-54
2024/01/08 06:50:22;;;;;;;5.72;3.47;;;-0.20;99.90;;;;;;5034763;28;20033;-53
2024/01/08 06:52:48;;;;;;;10.27;2.85;;;-0.10;99.90;;;;;;5034724;28;20064;-53
2024/01/08 06:55:14;;;;;;;6.30;2.33;;;-0.20;99.90;;;;;;5034955;28;20394;-54
2024/01/08 06:57:39;;;;;;;7.28;3.97;;;-0.20;99.90;;;;;;5034810;28;20400;-55
2024/01/08 07:00:07;;;;;;;3.33;2.17;;;-0.20;99.90;;;;;;5034431;28;20034;-52
2024/01/08 07:02:33;;;;;;;6.15;3.47;;;-0.20;99.90;;;;;;5034085;28;20037;-57
2024/01/08 07:04:59;;;;;;;4.70;2.83;;;-0.30;99.90;;;;;;5032694;28;20017;-49
2024/01/08 07:07:26;;;;;;;6.13;2.92;;;-0.20;99.90;;;;;;5028495;28;20040;-53
2024/01/08 07:09:53;;;;;;;4.23;2.70;;;-0.10;99.90;;;;;;5033975;28;20029;-54
2024/01/08 07:12:18;;;;;;;5.72;3.33;;;-0.10;99.90;;;;;;5034572;28;20117;-54
2024/01/08 07:14:49;;;;;;;7.95;2.45;;;-0.20;99.90;;;;;;5033591;28;20112;-54
2024/01/08 07:17:15;;;;;;;14.80;2.38;;;-0.20;99.90;;;;;;5033478;28;20037;-55
2024/01/08 07:19:41;;;;;;;9.75;2.65;;;-0.10;99.90;;;;;;5034044;28;20082;-53
2024/01/08 07:22:06;;;;;;;5.45;2.83;;;0.00;99.90;;;;;;5033778;28;20068;-57
2024/01/08 07:24:32;;;;;;;7.00;2.25;;;0.00;99.90;;;;;;5034256;28;20025;-54
2024/01/08 07:26:58;;;;;;;6.68;2.58;;;0.10;99.90;;;;;;5034183;28;20022;-61
2024/01/08 07:29:23;;;;;;;5.30;2.40;;;0.10;99.90;;;;;;5033874;28;20017;-44
2024/01/08 07:31:50;;;;;;;10.45;2.65;;;0.10;99.90;;;;;;5034072;28;20060;-45
2024/01/08 07:34:16;;;;;;;4.47;2.58;;;0.10;99.90;;;;;;5033876;28;20088;-46
2024/01/08 07:36:41;;;;;;;3.65;2.45;;;0.00;99.90;;;;;;5034046;28;20552;-46
2024/01/08 07:39:07;;;;;;;5.40;3.33;;;0.00;99.90;;;;;;5033604;28;20052;-42
2024/01/08 07:41:33;;;;;;;5.50;2.67;;;0.00;99.90;;;;;;5033785;28;20021;-46
2024/01/08 07:43:58;;;;;;;3.97;2.80;;;0.10;99.90;;;;;;5031820;28;20024;-44
2024/01/08 07:46:24;;;;;;;5.45;2.58;;;0.10;99.90;;;;;;5033841;28;20108;-44
2024/01/08 07:48:50;;;;;;;6.10;3.40;;;0.10;99.90;;;;;;5033515;28;20364;-46
2024/01/08 07:51:22;;;;;;;4.97;2.95;;;0.20;99.90;;;;;;5033765;28;20478;-43
2024/01/08 07:53:50;;;;;;;3.08;2.35;;;0.10;99.90;;;;;;5032039;28;20029;-49
2024/01/08 07:56:15;;;;;;;5.00;2.75;;;0.20;99.90;;;;;;5033672;28;20060;-44
2024/01/08 07:58:41;;;;;;;4.80;2.40;;;0.10;99.90;;;;;;5033597;28;20060;-42
2024/01/08 08:01:08;;;;;;;5.45;2.67;;;0.20;99.90;;;;;;5033492;28;20022;-47
2024/01/08 08:03:34;;;;;;;3.22;1.88;;;0.10;99.90;;;;;;5032804;28;20028;-45
2024/01/08 08:06:00;;;;;;;5.28;2.28;;;0.00;99.90;;;;;;5033362;28;20386;-50
2024/01/08 08:08:26;;;;;;;3.92;2.03;;;0.00;99.90;;;;;;5033336;28;20021;-47
2024/01/08 08:10:51;;;;;;;4.40;2.22;;;0.10;99.90;;;;;;5064962;28;20029;-45
2024/01/08 08:13:17;;;;;;;5.15;2.50;;;0.10;99.90;;;;;;5033398;28;20033;-41
2024/01/08 08:15:43;;;;;;;4.10;2.35;;;0.10;99.90;;;;;;5033502;28;20385;-44
2024/01/08 08:18:09;;;;;;;4.35;2.13;;;0.10;99.90;;;;;;5033282;28;20033;-44
2024/01/08 08:20:36;;;;;;;4.07;2.25;;;0.20;99.90;;;;;;5032718;28;20052;-47
2024/01/08 08:23:02;;;;;;;2.67;1.45;;;0.20;99.90;;;;;;5033329;28;20025;-48
2024/01/08 08:25:28;;;;;;;2.17;1.67;;;0.30;99.90;;;;;;5032853;28;20048;-44
2024/01/08 08:27:53;;;;;;;7.93;2.20;;;0.30;99.90;;;;;;5032525;28;20507;-46
2024/01/08 08:30:20;;;;;;;2.70;1.73;;;0.20;99.90;;;;;;5032945;28;20040;-45
2024/01/08 08:32:46;;;;;;;5.32;3.22;;;0.20;99.90;;;;;;5033081;28;20033;-46
2024/01/08 08:35:12;;;;;;;1.80;1.25;;;0.30;99.90;;;;;;5033135;28;20033;-46
2024/01/08 08:37:38;;;;;;;4.85;2.15;;;0.20;99.90;;;;;;5032416;28;20025;-52
2024/01/08 08:40:04;;;;;;;2.88;1.73;;;0.10;99.90;;;;;;5032139;28;20041;-53
2024/01/08 08:42:30;;;;;;;2.92;1.80;;;0.10;99.90;;;;;;5032951;28;20025;-52
2024/01/08 08:44:55;;;;;;;2.00;1.75;;;0.20;99.90;;;;;;5032758;28;20033;-54
2024/01/08 08:47:21;;;;;;;2.97;1.83;;;0.20;99.90;;;;;;5032341;28;20021;-46
2024/01/08 08:49:47;;;;;;;2.72;1.65;;;0.20;99.90;;;;;;5029705;28;20124;-45
2024/01/08 08:52:13;;;;;;;4.65;2.03;;;0.20;99.90;;;;;;5032805;28;20069;-46
2024/01/08 08:54:39;;;;;;;4.35;2.17;;;0.10;99.90;;;;;;5032530;28;20149;-46
2024/01/08 08:57:04;;;;;;;2.33;1.58;;;0.10;99.90;;;;;;5032760;28;20025;-45
2024/01/08 08:59:30;;;;;;;2.35;1.73;;;0.10;99.90;;;;;;5032379;28;20401;-45
2024/01/08 09:01:57;;;;;;;8.55;2.58;;;0.20;99.90;;;;;;5032681;28;20029;-46
2024/01/08 09:04:23;;;;;;;2.15;1.70;;;0.20;99.90;;;;;;5031397;28;20483;-47
2024/01/08 09:06:49;;;;;;;6.10;2.50;;;0.30;99.90;;;;;;5031431;28;20026;-52
2024/01/08 09:09:15;;;;;;;2.92;2.03;;;0.40;99.90;;;;;;5032417;28;20026;-46
2024/01/08 09:11:40;;;;;;;6.05;2.60;;;0.40;99.90;;;;;;5031286;28;20083;-43
2024/01/08 09:14:09;;;;;;;5.03;1.92;;;0.30;99.90;;;;;;5032538;28;20022;-44
2024/01/08 09:16:35;;;;;;;3.58;2.38;;;0.30;99.90;;;;;;5032503;28;20026;-47
2024/01/08 09:19:01;;;;;;;3.20;1.92;;;0.20;99.90;;;;;;5032251;28;20481;-47
2024/01/08 09:21:27;;;;;;;3.42;2.63;;;0.10;99.90;;;;;;5032425;28;20045;-47
2024/01/08 09:23:53;;;;;;;4.22;2.72;;;0.10;99.90;;;;;;5031976;28;20057;-46
2024/01/08 09:26:18;;;;;;;6.10;2.92;;;0.20;99.90;;;;;;5031750;28;20466;-42
2024/01/08 09:28:45;;;;;;;5.00;2.10;;;0.40;99.90;;;;;;5031180;28;20018;-43
2024/01/08 09:31:11;;;;;;;6.55;2.38;;;0.30;99.90;;;;;;5032409;28;20068;-48
2024/01/08 09:33:37;;;;;;;2.60;1.92;;;0.30;99.90;;;;;;5032210;28;20033;-45
2024/01/08 09:36:03;;;;;;;3.78;1.70;;;0.40;99.90;;;;;;5032156;28;20563;-49
2024/01/08 09:38:28;;;;;;;6.32;2.17;;;0.50;99.90;;;;;;5031513;28;20486;-45
2024/01/08 09:40:55;;;;;;;2.42;1.98;;;0.50;99.90;;;;;;5032554;28;20044;-47
2024/01/08 09:43:21;;;;;;;3.58;2.25;;;0.40;99.90;;;;;;5031902;28;20025;-47
2024/01/08 09:46:12;;;;;;;2.65;1.67;;;0.40;99.90;;;;;;5031923;28;20418;-48
2024/01/08 09:48:37;;;;;;;3.60;2.15;;;0.50;99.90;;;;;;5023546;28;20025;-46
2024/01/08 09:51:03;;;;;;;4.00;2.08;;;0.60;99.90;;;;;;5032525;28;20079;-47
2024/01/08 09:53:30;;;;;;;4.90;1.92;;;0.50;99.90;;;;;;5031646;28;20545;-49
2024/01/08 09:55:57;;;;;;;5.63;2.15;;;0.50;99.90;;;;;;5032475;28;20500;-45
2024/01/08 09:58:25;;;;;;;4.10;2.55;;;0.60;99.90;;;;;;5032138;28;20040;-46
2024/01/08 10:00:51;;;;;;;;;;;0.70;99.90;;;;;;5032827;28;20072;-45
2024/01/08 10:03:17;;;;;;;4.18;2.13;;;0.70;99.90;;;;;;5032152;28;19971;-45
2024/01/08 10:05:43;;;;;;;4.80;2.15;;;0.70;99.90;;;;;;5032683;28;20026;-44
2024/01/08 10:08:08;;;;;;;3.50;1.95;;;0.70;99.90;;;;;;5035491;28;20026;-47
2024/01/08 10:10:34;;;;;;;2.92;1.95;;;0.70;99.90;;;;;;5035681;28;20034;-46
2024/01/08 10:13:02;;;;;;;5.88;2.72;;;0.60;99.90;;;;;;5035415;28;20064;-46
2024/01/08 10:15:28;;;;;;;5.03;2.13;;;0.70;99.90;;;;;;5035642;28;20509;-45
2024/01/08 10:18:01;;;;;;;5.65;2.47;;;0.70;99.90;;;;;;5035638;28;20056;-48
2024/01/08 10:20:30;;;;;;;6.10;2.10;;;0.70;99.90;;;;;;5035711;28;20064;-42
2024/01/08 10:23:07;;;;;;;6.45;2.35;;;0.60;99.90;;;;;;5035340;28;20375;-45
2024/01/08 10:25:34;;;;;;;8.93;2.92;;;0.70;99.90;;;;;;5032470;28;20029;-45
2024/01/08 10:28:00;;;;;;;1.92;1.33;;;0.70;99.90;;;;;;5035237;28;20075;-46
2024/01/08 10:30:26;;;;;;;5.00;2.55;;;0.80;99.90;;;;;;5035243;28;20470;-49
2024/01/08 10:32:56;;;;;;;3.55;2.15;;;0.90;99.90;;;;;;5035018;28;20375;-46
2024/01/08 10:35:22;;;;;;;4.68;2.03;;;0.90;99.90;;;;;;5034919;28;20026;-46
2024/01/08 10:37:48;;;;;;;6.82;2.60;;;0.90;99.90;;;;;;5034266;28;20026;-47
2024/01/08 10:40:14;;;;;;;6.13;2.45;;;0.90;99.90;;;;;;5034566;28;20036;-45
2024/01/08 10:42:42;;;;;;;5.00;2.35;;;0.90;99.90;;;;;;5033710;28;20018;-45
2024/01/08 10:45:08;;;;;;;3.45;2.13;;;0.80;99.90;;;;;;5034313;28;20029;-44
2024/01/08 10:47:36;;;;;;;3.45;2.30;;;0.80;99.90;;;;;;5033555;28;20037;-43
2024/01/08 10:50:05;;;;;;;2.97;1.70;;;0.80;99.90;;;;;;5034002;28;20505;-46
2024/01/08 10:52:33;;;;;;;7.65;3.20;;;0.70;99.90;;;;;;5032315;28;20592;-46
2024/01/08 10:55:02;;;;;;;3.45;2.20;;;0.70;99.90;;;;;;5032327;28;20080;-49
2024/01/08 10:57:36;;;;;;;4.60;2.25;;;0.70;99.90;;;;;;5033991;28;20030;-49
2024/01/08 11:00:06;;;;;;;2.85;1.95;;;0.50;99.90;;;;;;5015042;28;20026;-42
2024/01/08 11:02:37;;;;;;;5.50;2.97;;;0.60;99.90;;;;;;5015001;28;20114;-45
2024/01/08 11:05:05;;;;;;;5.05;2.55;;;0.80;99.90;;;;;;5064147;28;20560;-44
2024/01/08 11:07:33;;;;;;;3.45;2.13;;;0.80;99.90;;;;;;5033825;28;20536;-47
2024/01/08 11:10:03;;;;;;;;;;;0.80;99.90;;;;;;5034063;28;20549;-46
2024/01/08 11:12:29;;;;;;;7.10;2.47;;;0.90;99.90;;;;;;5034818;28;20369;-44
2024/01/08 11:15:05;;;;;;;7.03;2.63;;;0.80;99.90;;;;;;5033446;28;20104;-44
2024/01/08 11:17:32;;;;;;;3.80;1.75;;;0.60;99.90;;;;;;5032941;28;20033;-45
2024/01/08 11:19:59;;;;;;;3.95;2.33;;;0.60;99.90;;;;;;5034067;28;20036;-46
2024/01/08 11:22:25;;;;;;;8.40;2.15;;;0.60;99.90;;;;;;5034291;28;20044;-44
2024/01/08 11:24:57;;;;;;;3.58;2.60;;;0.60;99.90;;;;;;5034041;28;20025;-47
2024/01/08 11:27:23;;;;;;;2.97;1.80;;;0.80;99.90;;;;;;5034154;28;20493;-50
2024/01/08 11:29:59;;;;;;;6.25;2.88;;;0.90;99.90;;;;;;5033934;28;20514;-45
2024/01/08 11:32:33;;;;;;;7.60;2.20;;;1.00;99.90;;;;;;5018075;28;20470;-45
2024/01/08 11:35:00;;;;;;;5.90;2.13;;;1.00;99.90;;;;;;5033824;28;20067;-47
2024/01/08 11:37:37;;;;;;;3.28;2.30;;;1.00;99.90;;;;;;5033990;28;20025;-48
2024/01/08 11:40:18;;;;;;;5.40;2.90;;;1.00;99.90;;;;;;5033639;28;20486;-48
2024/01/08 11:42:49;;;;;;;3.25;2.00;;;1.10;99.90;;;;;;5034029;28;20025;-42
2024/01/08 11:45:16;;;;;;;4.25;2.20;;;1.20;99.90;;;;;;5033878;28;20501;-43
2024/01/08 11:47:43;;;;;;;2.45;1.60;;;1.40;99.90;;;;;;5033129;28;20021;-44
2024/01/08 11:50:09;;;;;;;2.22;1.90;;;1.50;99.90;;;;;;5032593;28;20128;-46
2024/01/08 11:52:37;;;;;;;4.43;2.33;;;1.40;99.90;;;;;;5032290;28;20021;-43
2024/01/08 11:55:04;;;;;;;3.97;2.35;;;1.20;99.90;;;;;;5033883;28;20486;-56
2024/01/08 11:57:31;;;;;;;5.60;2.40;;;1.00;99.90;;;;;;5033450;28;20496;-54
2024/01/08 11:59:57;;;;;;;2.35;2.05;;;0.80;99.90;;;;;;5033679;28;20482;-53
2024/01/08 12:02:27;;;;;;;3.40;1.63;;;0.70;99.90;;;;;;5033500;28;20079;-54
2024/01/08 12:04:56;;;;;;;3.35;1.98;;;0.70;99.90;;;;;;5033364;28;20416;-50
2024/01/08 12:07:24;;;;;;;3.35;1.88;;;0.70;99.90;;;;;;5032801;28;20018;-54
2024/01/08 12:09:50;;;;;;;5.68;1.92;;;0.70;99.90;;;;;;5032985;28;20037;-55
2024/01/08 12:12:17;;;;;;;3.03;1.98;;;0.80;99.90;;;;;;5033333;28;20021;-52
2024/01/08 12:14:44;;;;;;;4.80;2.17;;;0.80;99.90;;;;;;5033402;28;20029;-55
2024/01/08 12:17:12;;;;;;;3.42;2.05;;;0.80;99.90;;;;;;5032130;28;20478;-54
2024/01/08 12:19:48;;;;;;;2.70;2.00;;;1.10;99.90;;;;;;5031706;28;20485;-54
2024/01/08 12:22:16;;;;;;;9.52;2.28;;;1.20;99.90;;;;;;5032665;28;20402;-55
2024/01/08 12:24:45;;;;;;;3.08;2.38;;;1.20;99.90;;;;;;5033216;28;20018;-53
2024/01/08 12:27:11;;;;;;;;;;;1.30;99.90;;;;;;5033909;28;20021;-53
2024/01/08 12:29:41;;;;;;;4.13;2.10;;;1.40;99.90;;;;;;5032820;28;19954;-53
2024/01/08 12:32:09;;;;;;;3.20;1.77;;;1.50;99.90;;;;;;5032398;28;20415;-53
2024/01/08 12:34:42;;;;;;;3.50;1.65;;;1.40;99.90;;;;;;5033186;28;20076;-53
2024/01/08 12:37:09;;;;;;;2.58;1.90;;;1.40;99.90;;;;;;5032869;28;20508;-53
2024/01/08 12:39:35;;;;;;;6.22;1.45;;;1.40;99.90;;;;;;5032926;28;20029;-53
2024/01/08 12:42:13;;;;;;;3.95;2.08;;;1.20;99.90;;;;;;5032794;28;20029;-55
2024/01/08 12:44:40;;;;;;;3.03;2.00;;;1.20;99.90;;;;;;5032991;28;20022;-54
2024/01/08 12:47:07;;;;;;;3.38;2.10;;;1.10;99.90;;;;;;5032554;28;20033;-54
2024/01/08 12:49:34;;;;;;;3.30;2.08;;;1.00;99.90;;;;;;5032665;28;20028;-53